Meteo Giornale » Osservazioni meteo Italia » Catania-Sigonella

ore: 02:55 - Osservazioni Meteo Catania-Sigonella
Lat. 37° 24' N Lon. 14° 55' E Alt. 22 metri s.l.m.

poco_nuvoloso Europe/Rome

14 °C

Poco Nuvoloso

Temp. 24 Ore

12 °C

22 °C

Ovest/Nord-Ovest

9.3 Km/h

Dew point 14 °C

Umidità 100 %

Visibilità  10 Km

Il sole sorge alle ore 06:43

Il sole tramonta alle ore 16:48

Data e Ora Cielo e Fenomeni T °C DP °C Um. % Pres. hPa Vis. km Vento km/h
Oggi h: 02:55 poco_nuvoloso Poco Nuvoloso 14 14 100 1014 10 O/NO 9.3
Oggi h: 01:55 nuvoloso Nuvoloso 17 17 100 1014 10 O 7.4
Oggi h: 00:55 nuvoloso Nuvoloso 16 16 100 1015 10 S/SO 18.5
Ieri h: 23:55 nuvoloso Nuvoloso 16 16 100 1015 10 O 14.8
Ieri h: 22:55 nuvoloso Nuvoloso 17 17 100 1015 10 O 13
Ieri h: 21:55 nuvoloso Nuvoloso 17 16 93 1014 10 O 13
Ieri h: 20:55 nuvoloso Nuvoloso 14 12 87 1014 10 O 14.8
Ieri h: 19:55 nuvoloso Nuvoloso 14 12 87 1014 10 O/SO 7.4
Ieri h: 18:55 nuvoloso Nuvoloso 15 14 93 1014 10 SO 9.3
Ieri h: 17:55 nuvoloso Nuvoloso 16 13 82 1013 10 SO 7.4
Ieri h: 16:55 molto_nuvoloso Molto Nuvoloso 16 12 77 1013 10 N 3.7
Ieri h: 15:55 nuvoloso Nuvoloso 16 12 77 1013 10 E/SE 11.1
Ieri h: 14:55 nuvoloso Nuvoloso 20 11 56 1013 10 E/NE 16.7
Ieri h: 13:55 nuvoloso Nuvoloso 19 8 48 1013 10 N 5.5
Ieri h: 12:55 nuvoloso Nuvoloso 22 6 35 1013 10 O 18.5
Ieri h: 11:55 poco_nuvoloso Poco Nuvoloso 20 6 39 1013 10 O 22.2
Ieri h: 10:55 poco_nuvoloso Poco Nuvoloso 20 8 45 1013 10 O 22.2
Ieri h: 09:55 poco_nuvoloso Poco Nuvoloso 18 9 55 1013 10 O 20.3
Ieri h: 06:55 poco_nuvoloso Poco Nuvoloso 13 11 87 1012 10 O/NO 13
Ieri h: 05:55 poco_nuvoloso Poco Nuvoloso 12 11 93 1012 10 O/NO 11.1
Ieri h: 04:55 poco_nuvoloso Poco Nuvoloso 12 12 100 1012 10 N 5.5
Ieri h: 03:55 poco_nuvoloso Poco Nuvoloso 12 12 100 1012 10 O 9.3